createdAt,value
2019-05-11T07:20:49.982Z,99.90
2019-05-11T07:30:47.344Z,99.90
2019-05-11T07:50:55.282Z,97.10
2019-05-11T08:00:58.196Z,78.60
2019-05-11T08:10:58.656Z,61.30
2019-05-11T08:20:59.301Z,50.00
2019-05-11T08:31:04.146Z,49.40
2019-05-11T08:41:07.881Z,46.60
2019-05-11T08:51:08.386Z,48.60
2019-05-11T09:01:08.982Z,48.60
2019-05-11T09:11:10.126Z,40.00
2019-05-11T09:21:11.405Z,40.10
2019-05-11T09:31:12.669Z,38.20
2019-05-11T09:41:13.945Z,36.80
2019-05-11T09:51:15.237Z,40.80
2019-05-11T10:11:28.093Z,38.60
2019-05-11T10:21:27.798Z,39.90
2019-05-11T10:31:28.570Z,40.40
2019-05-11T10:51:38.317Z,52.90
2019-05-11T11:01:38.295Z,52.60
2019-05-11T11:21:48.864Z,52.00
2019-05-11T11:31:49.929Z,55.60
2019-05-11T12:02:08.600Z,56.00
2019-05-11T12:12:08.336Z,56.40
2019-05-11T12:22:09.249Z,56.70
2019-05-11T12:32:10.538Z,58.10
2019-05-11T12:42:12.148Z,56.30
2019-05-11T12:52:13.474Z,56.50
2019-05-11T13:02:14.771Z,55.90
2019-05-11T13:12:18.641Z,54.30
2019-05-11T13:22:18.503Z,57.10
2019-05-11T13:32:19.886Z,55.70
2019-05-11T13:42:23.227Z,56.80
2019-05-11T13:52:22.482Z,54.10
2019-05-11T14:02:23.777Z,58.20
2019-05-11T14:12:25.070Z,58.90
2019-05-11T14:22:28.201Z,58.00
2019-05-11T14:32:28.653Z,57.70
2019-05-11T15:02:43.655Z,60.10
2019-05-11T15:12:45.765Z,61.40
2019-05-11T15:22:48.858Z,56.70
2019-05-11T15:32:49.963Z,53.70
2019-05-11T15:42:51.346Z,53.40
2019-05-11T15:52:52.872Z,54.70
2019-05-11T16:02:54.219Z,54.90
2019-05-11T16:12:55.696Z,56.00
2019-05-11T16:22:57.117Z,56.50
2019-05-11T16:32:58.482Z,56.80
2019-05-11T16:42:59.855Z,58.70
2019-05-11T16:53:01.193Z,60.70
2019-05-11T17:03:03.248Z,61.40
2019-05-11T17:13:04.537Z,61.30
2019-05-11T17:23:05.802Z,64.40
2019-05-11T17:33:08.661Z,64.90
2019-05-11T18:13:31.821Z,67.50
2019-05-11T18:23:34.169Z,72.40
2019-05-11T18:33:39.833Z,99.90
2019-05-11T18:43:41.113Z,99.90
2019-05-11T18:53:42.468Z,99.90
